sensor_id;sensor_type;location;lat;lon;timestamp;P1;durP1;ratioP1;P2;durP2;ratioP2
68509;SDS011;55512;50.102;19.958;2023-03-01T00:02:00;28.80;;;13.60;;
68509;SDS011;55512;50.102;19.958;2023-03-01T00:04:26;29.40;;;13.10;;
68509;SDS011;55512;50.102;19.958;2023-03-01T00:06:53;32.20;;;13.70;;
68509;SDS011;55512;50.102;19.958;2023-03-01T00:09:19;29.80;;;13.60;;
68509;SDS011;55512;50.102;19.958;2023-03-01T00:11:44;29.40;;;13.00;;
68509;SDS011;55512;50.102;19.958;2023-03-01T00:14:11;29.60;;;13.50;;
68509;SDS011;55512;50.102;19.958;2023-03-01T00:16:39;33.80;;;15.10;;
68509;SDS011;55512;50.102;19.958;2023-03-01T00:19:08;45.50;;;19.40;;
68509;SDS011;55512;50.102;19.958;2023-03-01T00:21:37;40.10;;;19.70;;
68509;SDS011;55512;50.102;19.958;2023-03-01T00:24:03;48.10;;;23.50;;
68509;SDS011;55512;50.102;19.958;2023-03-01T00:26:29;48.40;;;23.10;;
68509;SDS011;55512;50.102;19.958;2023-03-01T00:28:57;49.50;;;24.60;;
68509;SDS011;55512;50.102;19.958;2023-03-01T00:31:26;47.70;;;22.60;;
68509;SDS011;55512;50.102;19.958;2023-03-01T00:33:56;44.20;;;21.80;;
68509;SDS011;55512;50.102;19.958;2023-03-01T00:36:25;41.60;;;19.50;;
68509;SDS011;55512;50.102;19.958;2023-03-01T00:38:52;41.50;;;19.00;;
68509;SDS011;55512;50.102;19.958;2023-03-01T00:41:19;39.60;;;17.90;;
68509;SDS011;55512;50.102;19.958;2023-03-01T00:43:45;46.30;;;21.00;;
68509;SDS011;55512;50.102;19.958;2023-03-01T00:46:13;45.40;;;21.40;;
68509;SDS011;55512;50.102;19.958;2023-03-01T00:48:40;44.90;;;20.90;;
68509;SDS011;55512;50.102;19.958;2023-03-01T00:51:12;45.90;;;19.40;;
68509;SDS011;55512;50.102;19.958;2023-03-01T00:53:39;40.60;;;19.50;;
68509;SDS011;55512;50.102;19.958;2023-03-01T00:56:07;47.10;;;20.20;;
68509;SDS011;55512;50.102;19.958;2023-03-01T00:58:34;40.10;;;19.60;;
68509;SDS011;55512;50.102;19.958;2023-03-01T01:01:01;37.80;;;16.50;;
68509;SDS011;55512;50.102;19.958;2023-03-01T01:03:43;37.40;;;18.10;;
68509;SDS011;55512;50.102;19.958;2023-03-01T01:06:14;38.20;;;17.50;;
68509;SDS011;55512;50.102;19.958;2023-03-01T01:08:41;37.60;;;17.30;;
68509;SDS011;55512;50.102;19.958;2023-03-01T01:11:09;34.50;;;16.40;;
68509;SDS011;55512;50.102;19.958;2023-03-01T01:13:35;36.10;;;15.90;;
68509;SDS011;55512;50.102;19.958;2023-03-01T01:16:02;35.40;;;15.70;;
68509;SDS011;55512;50.102;19.958;2023-03-01T01:18:28;33.70;;;16.60;;
68509;SDS011;55512;50.102;19.958;2023-03-01T01:20:53;36.10;;;15.90;;
68509;SDS011;55512;50.102;19.958;2023-03-01T01:23:18;33.50;;;15.60;;
68509;SDS011;55512;50.102;19.958;2023-03-01T01:25:44;37.00;;;16.50;;
68509;SDS011;55512;50.102;19.958;2023-03-01T01:28:09;34.80;;;15.60;;
68509;SDS011;55512;50.102;19.958;2023-03-01T01:30:35;39.00;;;16.30;;
68509;SDS011;55512;50.102;19.958;2023-03-01T01:33:00;31.90;;;14.90;;
68509;SDS011;55512;50.102;19.958;2023-03-01T01:35:27;33.40;;;15.10;;
68509;SDS011;55512;50.102;19.958;2023-03-01T01:37:52;33.60;;;15.60;;
68509;SDS011;55512;50.102;19.958;2023-03-01T01:40:18;31.10;;;14.60;;
68509;SDS011;55512;50.102;19.958;2023-03-01T01:42:43;32.50;;;16.20;;
68509;SDS011;55512;50.102;19.958;2023-03-01T01:45:27;31.00;;;15.20;;
68509;SDS011;55512;50.102;19.958;2023-03-01T01:47:58;34.10;;;15.00;;
68509;SDS011;55512;50.102;19.958;2023-03-01T01:50:30;31.20;;;14.50;;
68509;SDS011;55512;50.102;19.958;2023-03-01T01:53:05;18.00;;;8.20;;
68509;SDS011;55512;50.102;19.958;2023-03-01T01:55:36;29.00;;;13.50;;
68509;SDS011;55512;50.102;19.958;2023-03-01T01:58:07;34.20;;;15.40;;
68509;SDS011;55512;50.102;19.958;2023-03-01T02:00:36;31.70;;;13.60;;
68509;SDS011;55512;50.102;19.958;2023-03-01T02:03:08;30.40;;;12.70;;
68509;SDS011;55512;50.102;19.958;2023-03-01T02:08:49;30.30;;;13.80;;
68509;SDS011;55512;50.102;19.958;2023-03-01T02:11:18;30.60;;;12.70;;
68509;SDS011;55512;50.102;19.958;2023-03-01T02:13:44;30.80;;;13.40;;
68509;SDS011;55512;50.102;19.958;2023-03-01T02:16:14;31.30;;;13.80;;
68509;SDS011;55512;50.102;19.958;2023-03-01T02:18:41;33.30;;;14.00;;
68509;SDS011;55512;50.102;19.958;2023-03-01T02:21:17;31.90;;;13.90;;
68509;SDS011;55512;50.102;19.958;2023-03-01T02:23:45;25.80;;;12.10;;
68509;SDS011;55512;50.102;19.958;2023-03-01T02:28:44;30.90;;;13.60;;
68509;SDS011;55512;50.102;19.958;2023-03-01T02:31:15;30.50;;;14.30;;
68509;SDS011;55512;50.102;19.958;2023-03-01T02:34:02;29.40;;;13.70;;
68509;SDS011;55512;50.102;19.958;2023-03-01T02:36:39;30.30;;;13.30;;
68509;SDS011;55512;50.102;19.958;2023-03-01T02:39:14;29.70;;;12.80;;
68509;SDS011;55512;50.102;19.958;2023-03-01T02:41:48;31.70;;;13.20;;
68509;SDS011;55512;50.102;19.958;2023-03-01T02:44:16;31.60;;;13.50;;
68509;SDS011;55512;50.102;19.958;2023-03-01T02:46:45;31.60;;;13.30;;
68509;SDS011;55512;50.102;19.958;2023-03-01T02:49:30;37.90;;;13.70;;
68509;SDS011;55512;50.102;19.958;2023-03-01T02:57:32;32.60;;;13.50;;
68509;SDS011;55512;50.102;19.958;2023-03-01T03:00:05;31.10;;;12.90;;
68509;SDS011;55512;50.102;19.958;2023-03-01T03:02:36;34.20;;;13.80;;
68509;SDS011;55512;50.102;19.958;2023-03-01T03:05:14;30.60;;;14.40;;
68509;SDS011;55512;50.102;19.958;2023-03-01T03:07:44;28.10;;;13.10;;
68509;SDS011;55512;50.102;19.958;2023-03-01T03:10:14;27.10;;;13.40;;
68509;SDS011;55512;50.102;19.958;2023-03-01T03:12:49;35.30;;;14.40;;
68509;SDS011;55512;50.102;19.958;2023-03-01T03:15:16;33.80;;;15.30;;
68509;SDS011;55512;50.102;19.958;2023-03-01T03:17:43;30.30;;;14.00;;
68509;SDS011;55512;50.102;19.958;2023-03-01T03:20:11;36.30;;;15.30;;
68509;SDS011;55512;50.102;19.958;2023-03-01T03:22:38;36.20;;;15.40;;
68509;SDS011;55512;50.102;19.958;2023-03-01T03:25:06;35.70;;;15.00;;
68509;SDS011;55512;50.102;19.958;2023-03-01T03:27:40;34.00;;;14.70;;
68509;SDS011;55512;50.102;19.958;2023-03-01T03:30:09;37.30;;;15.60;;
68509;SDS011;55512;50.102;19.958;2023-03-01T03:32:41;32.40;;;13.90;;
68509;SDS011;55512;50.102;19.958;2023-03-01T03:35:21;31.30;;;13.50;;
68509;SDS011;55512;50.102;19.958;2023-03-01T03:37:53;33.40;;;14.40;;
68509;SDS011;55512;50.102;19.958;2023-03-01T03:40:34;32.10;;;14.60;;
68509;SDS011;55512;50.102;19.958;2023-03-01T03:43:03;33.10;;;14.60;;
68509;SDS011;55512;50.102;19.958;2023-03-01T03:45:31;32.10;;;14.50;;
68509;SDS011;55512;50.102;19.958;2023-03-01T03:47:59;31.50;;;13.90;;
68509;SDS011;55512;50.102;19.958;2023-03-01T03:50:25;32.70;;;13.60;;
68509;SDS011;55512;50.102;19.958;2023-03-01T03:52:51;34.60;;;15.30;;
68509;SDS011;55512;50.102;19.958;2023-03-01T03:55:17;35.30;;;15.50;;
68509;SDS011;55512;50.102;19.958;2023-03-01T03:57:45;38.10;;;16.70;;
68509;SDS011;55512;50.102;19.958;2023-03-01T04:00:20;31.10;;;15.00;;
68509;SDS011;55512;50.102;19.958;2023-03-01T04:02:49;38.50;;;16.40;;
68509;SDS011;55512;50.102;19.958;2023-03-01T04:05:17;40.20;;;18.10;;
68509;SDS011;55512;50.102;19.958;2023-03-01T04:07:44;32.70;;;15.70;;
68509;SDS011;55512;50.102;19.958;2023-03-01T04:10:16;39.10;;;17.90;;
68509;SDS011;55512;50.102;19.958;2023-03-01T04:12:43;38.50;;;17.60;;
68509;SDS011;55512;50.102;19.958;2023-03-01T04:15:10;43.70;;;18.70;;
68509;SDS011;55512;50.102;19.958;2023-03-01T04:17:40;41.40;;;17.60;;
68509;SDS011;55512;50.102;19.958;2023-03-01T04:20:11;41.60;;;19.30;;
68509;SDS011;55512;50.102;19.958;2023-03-01T04:22:40;39.80;;;18.20;;
68509;SDS011;55512;50.102;19.958;2023-03-01T04:25:06;40.40;;;18.00;;
68509;SDS011;55512;50.102;19.958;2023-03-01T04:27:35;40.00;;;18.10;;
68509;SDS011;55512;50.102;19.958;2023-03-01T04:30:04;38.20;;;17.80;;
68509;SDS011;55512;50.102;19.958;2023-03-01T04:32:30;42.40;;;17.60;;
68509;SDS011;55512;50.102;19.958;2023-03-01T04:34:56;41.70;;;17.10;;
68509;SDS011;55512;50.102;19.958;2023-03-01T04:37:23;36.50;;;16.00;;
68509;SDS011;55512;50.102;19.958;2023-03-01T04:39:49;39.00;;;16.50;;
68509;SDS011;55512;50.102;19.958;2023-03-01T04:42:15;43.20;;;18.30;;
68509;SDS011;55512;50.102;19.958;2023-03-01T04:44:42;35.30;;;17.80;;
68509;SDS011;55512;50.102;19.958;2023-03-01T04:47:08;39.80;;;19.20;;
68509;SDS011;55512;50.102;19.958;2023-03-01T04:49:34;42.40;;;18.40;;
68509;SDS011;55512;50.102;19.958;2023-03-01T04:51:59;39.50;;;17.60;;
68509;SDS011;55512;50.102;19.958;2023-03-01T04:54:31;38.20;;;17.30;;
68509;SDS011;55512;50.102;19.958;2023-03-01T04:56:58;38.70;;;17.50;;
68509;SDS011;55512;50.102;19.958;2023-03-01T04:59:24;39.10;;;17.80;;
68509;SDS011;55512;50.102;19.958;2023-03-01T05:01:54;42.00;;;18.40;;
68509;SDS011;55512;50.102;19.958;2023-03-01T05:04:24;38.40;;;18.10;;
68509;SDS011;55512;50.102;19.958;2023-03-01T05:06:50;41.60;;;18.60;;
68509;SDS011;55512;50.102;19.958;2023-03-01T05:09:16;38.70;;;20.00;;
68509;SDS011;55512;50.102;19.958;2023-03-01T05:11:42;44.60;;;18.70;;
68509;SDS011;55512;50.102;19.958;2023-03-01T05:14:08;38.60;;;18.40;;
68509;SDS011;55512;50.102;19.958;2023-03-01T05:16:35;41.00;;;17.80;;
68509;SDS011;55512;50.102;19.958;2023-03-01T05:19:02;40.80;;;18.30;;
68509;SDS011;55512;50.102;19.958;2023-03-01T05:21:37;39.80;;;18.10;;
68509;SDS011;55512;50.102;19.958;2023-03-01T05:24:24;35.10;;;16.60;;
68509;SDS011;55512;50.102;19.958;2023-03-01T05:26:50;34.00;;;15.60;;
68509;SDS011;55512;50.102;19.958;2023-03-01T05:29:18;36.10;;;14.90;;
68509;SDS011;55512;50.102;19.958;2023-03-01T05:31:57;32.90;;;15.50;;
68509;SDS011;55512;50.102;19.958;2023-03-01T05:34:29;37.90;;;15.50;;
68509;SDS011;55512;50.102;19.958;2023-03-01T05:36:57;37.60;;;15.80;;
68509;SDS011;55512;50.102;19.958;2023-03-01T05:39:25;34.70;;;15.10;;
68509;SDS011;55512;50.102;19.958;2023-03-01T05:41:53;31.80;;;14.50;;
68509;SDS011;55512;50.102;19.958;2023-03-01T05:44:20;33.90;;;15.00;;
68509;SDS011;55512;50.102;19.958;2023-03-01T05:46:46;36.50;;;15.50;;
68509;SDS011;55512;50.102;19.958;2023-03-01T05:49:12;38.20;;;16.80;;
68509;SDS011;55512;50.102;19.958;2023-03-01T05:51:39;35.10;;;16.20;;
68509;SDS011;55512;50.102;19.958;2023-03-01T05:54:06;41.30;;;16.70;;
68509;SDS011;55512;50.102;19.958;2023-03-01T05:56:33;36.50;;;16.50;;
68509;SDS011;55512;50.102;19.958;2023-03-01T05:59:01;37.80;;;17.80;;
68509;SDS011;55512;50.102;19.958;2023-03-01T06:01:27;36.70;;;17.50;;
68509;SDS011;55512;50.102;19.958;2023-03-01T06:03:52;39.00;;;15.70;;
68509;SDS011;55512;50.102;19.958;2023-03-01T06:06:18;35.70;;;16.20;;
68509;SDS011;55512;50.102;19.958;2023-03-01T06:08:43;30.30;;;13.70;;
68509;SDS011;55512;50.102;19.958;2023-03-01T06:11:09;38.20;;;15.60;;
68509;SDS011;55512;50.102;19.958;2023-03-01T06:13:35;33.80;;;15.90;;
68509;SDS011;55512;50.102;19.958;2023-03-01T06:16:03;37.80;;;16.20;;
68509;SDS011;55512;50.102;19.958;2023-03-01T06:18:29;33.70;;;14.10;;
68509;SDS011;55512;50.102;19.958;2023-03-01T06:20:55;42.90;;;18.10;;
68509;SDS011;55512;50.102;19.958;2023-03-01T06:23:22;33.50;;;16.60;;
68509;SDS011;55512;50.102;19.958;2023-03-01T06:25:48;41.30;;;17.00;;
68509;SDS011;55512;50.102;19.958;2023-03-01T06:28:13;40.90;;;17.90;;
68509;SDS011;55512;50.102;19.958;2023-03-01T06:30:39;35.40;;;16.60;;
68509;SDS011;55512;50.102;19.958;2023-03-01T06:33:04;35.90;;;16.10;;
68509;SDS011;55512;50.102;19.958;2023-03-01T06:35:30;38.70;;;17.10;;
68509;SDS011;55512;50.102;19.958;2023-03-01T06:37:57;36.40;;;17.20;;
68509;SDS011;55512;50.102;19.958;2023-03-01T06:40:24;37.90;;;18.10;;
68509;SDS011;55512;50.102;19.958;2023-03-01T06:42:51;39.30;;;17.00;;
68509;SDS011;55512;50.102;19.958;2023-03-01T06:45:18;38.80;;;17.50;;
68509;SDS011;55512;50.102;19.958;2023-03-01T06:47:45;37.70;;;18.40;;
68509;SDS011;55512;50.102;19.958;2023-03-01T06:50:12;38.70;;;18.30;;
68509;SDS011;55512;50.102;19.958;2023-03-01T06:52:38;37.50;;;17.90;;
68509;SDS011;55512;50.102;19.958;2023-03-01T06:55:04;42.00;;;20.50;;
68509;SDS011;55512;50.102;19.958;2023-03-01T06:57:31;39.30;;;19.70;;
68509;SDS011;55512;50.102;19.958;2023-03-01T06:59:57;40.30;;;19.40;;
68509;SDS011;55512;50.102;19.958;2023-03-01T07:02:22;41.00;;;19.60;;
68509;SDS011;55512;50.102;19.958;2023-03-01T07:04:49;38.60;;;19.10;;
68509;SDS011;55512;50.102;19.958;2023-03-01T07:07:16;39.20;;;20.00;;
68509;SDS011;55512;50.102;19.958;2023-03-01T07:09:44;39.60;;;17.80;;
68509;SDS011;55512;50.102;19.958;2023-03-01T07:12:10;34.10;;;16.80;;
68509;SDS011;55512;50.102;19.958;2023-03-01T07:14:36;33.70;;;17.50;;
68509;SDS011;55512;50.102;19.958;2023-03-01T07:17:01;33.60;;;16.50;;
68509;SDS011;55512;50.102;19.958;2023-03-01T07:19:27;35.30;;;17.20;;
68509;SDS011;55512;50.102;19.958;2023-03-01T07:21:52;34.20;;;17.50;;
68509;SDS011;55512;50.102;19.958;2023-03-01T07:24:18;32.40;;;15.80;;
68509;SDS011;55512;50.102;19.958;2023-03-01T07:26:43;30.20;;;15.90;;
68509;SDS011;55512;50.102;19.958;2023-03-01T07:29:10;32.90;;;16.70;;
68509;SDS011;55512;50.102;19.958;2023-03-01T07:31:36;36.80;;;16.60;;
68509;SDS011;55512;50.102;19.958;2023-03-01T07:34:02;39.50;;;18.20;;
68509;SDS011;55512;50.102;19.958;2023-03-01T07:36:27;36.50;;;18.10;;
68509;SDS011;55512;50.102;19.958;2023-03-01T07:38:53;43.20;;;19.80;;
68509;SDS011;55512;50.102;19.958;2023-03-01T07:41:21;37.40;;;18.30;;
68509;SDS011;55512;50.102;19.958;2023-03-01T07:43:46;34.30;;;17.70;;
68509;SDS011;55512;50.102;19.958;2023-03-01T07:46:12;34.90;;;17.30;;
68509;SDS011;55512;50.102;19.958;2023-03-01T07:48:38;36.00;;;17.70;;
68509;SDS011;55512;50.102;19.958;2023-03-01T07:51:05;31.90;;;17.40;;
68509;SDS011;55512;50.102;19.958;2023-03-01T07:53:32;33.70;;;16.60;;
68509;SDS011;55512;50.102;19.958;2023-03-01T07:56:03;34.10;;;17.70;;
68509;SDS011;55512;50.102;19.958;2023-03-01T07:58:30;20.50;;;9.50;;
68509;SDS011;55512;50.102;19.958;2023-03-01T08:01:01;32.10;;;16.70;;
68509;SDS011;55512;50.102;19.958;2023-03-01T08:03:30;36.80;;;17.40;;
68509;SDS011;55512;50.102;19.958;2023-03-01T08:05:59;33.60;;;17.40;;
68509;SDS011;55512;50.102;19.958;2023-03-01T08:08:26;33.40;;;16.10;;
68509;SDS011;55512;50.102;19.958;2023-03-01T08:10:51;34.30;;;16.70;;
68509;SDS011;55512;50.102;19.958;2023-03-01T08:13:17;34.00;;;17.40;;
68509;SDS011;55512;50.102;19.958;2023-03-01T08:15:50;39.30;;;18.30;;
68509;SDS011;55512;50.102;19.958;2023-03-01T08:18:18;34.50;;;17.60;;
68509;SDS011;55512;50.102;19.958;2023-03-01T08:20:44;37.50;;;18.70;;
68509;SDS011;55512;50.102;19.958;2023-03-01T08:23:10;35.80;;;18.40;;
68509;SDS011;55512;50.102;19.958;2023-03-01T08:25:35;34.50;;;17.00;;
68509;SDS011;55512;50.102;19.958;2023-03-01T08:28:02;32.90;;;16.80;;
68509;SDS011;55512;50.102;19.958;2023-03-01T08:30:27;34.10;;;17.80;;
68509;SDS011;55512;50.102;19.958;2023-03-01T08:32:53;33.20;;;18.20;;
68509;SDS011;55512;50.102;19.958;2023-03-01T08:35:19;37.30;;;17.40;;
68509;SDS011;55512;50.102;19.958;2023-03-01T08:37:46;32.60;;;15.40;;
68509;SDS011;55512;50.102;19.958;2023-03-01T08:40:12;31.80;;;16.30;;
68509;SDS011;55512;50.102;19.958;2023-03-01T08:42:39;37.70;;;17.60;;
68509;SDS011;55512;50.102;19.958;2023-03-01T08:45:07;33.30;;;17.80;;
68509;SDS011;55512;50.102;19.958;2023-03-01T08:47:33;31.30;;;17.60;;
68509;SDS011;55512;50.102;19.958;2023-03-01T08:49:59;32.80;;;17.50;;
68509;SDS011;55512;50.102;19.958;2023-03-01T08:52:25;38.30;;;17.60;;
68509;SDS011;55512;50.102;19.958;2023-03-01T08:54:52;33.00;;;17.20;;
68509;SDS011;55512;50.102;19.958;2023-03-01T08:57:18;31.60;;;15.70;;
68509;SDS011;55512;50.102;19.958;2023-03-01T08:59:43;23.50;;;12.50;;
68509;SDS011;55512;50.102;19.958;2023-03-01T09:02:15;23.60;;;11.40;;
68509;SDS011;55512;50.102;19.958;2023-03-01T09:04:42;29.60;;;14.60;;
68509;SDS011;55512;50.102;19.958;2023-03-01T09:07:09;24.00;;;12.20;;
68509;SDS011;55512;50.102;19.958;2023-03-01T09:09:36;18.30;;;8.70;;
68509;SDS011;55512;50.102;19.958;2023-03-01T09:12:03;27.50;;;13.80;;
68509;SDS011;55512;50.102;19.958;2023-03-01T09:14:29;27.40;;;12.50;;
68509;SDS011;55512;50.102;19.958;2023-03-01T09:16:55;28.90;;;14.20;;
68509;SDS011;55512;50.102;19.958;2023-03-01T09:19:20;31.10;;;13.80;;
68509;SDS011;55512;50.102;19.958;2023-03-01T09:21:46;25.80;;;13.80;;
68509;SDS011;55512;50.102;19.958;2023-03-01T09:24:22;34.20;;;14.50;;
68509;SDS011;55512;50.102;19.958;2023-03-01T09:26:50;24.90;;;11.40;;
68509;SDS011;55512;50.102;19.958;2023-03-01T09:29:18;26.20;;;13.90;;
68509;SDS011;55512;50.102;19.958;2023-03-01T09:31:44;27.10;;;13.70;;
68509;SDS011;55512;50.102;19.958;2023-03-01T09:34:09;25.80;;;13.80;;
68509;SDS011;55512;50.102;19.958;2023-03-01T09:36:35;24.80;;;12.50;;
68509;SDS011;55512;50.102;19.958;2023-03-01T09:39:02;23.30;;;11.90;;
68509;SDS011;55512;50.102;19.958;2023-03-01T09:41:58;26.80;;;12.30;;
68509;SDS011;55512;50.102;19.958;2023-03-01T09:44:38;24.20;;;12.00;;
68509;SDS011;55512;50.102;19.958;2023-03-01T09:47:40;26.00;;;13.10;;
68509;SDS011;55512;50.102;19.958;2023-03-01T09:50:12;24.90;;;11.10;;
68509;SDS011;55512;50.102;19.958;2023-03-01T09:56:03;24.80;;;12.10;;
68509;SDS011;55512;50.102;19.958;2023-03-01T09:59:20;27.60;;;13.70;;
68509;SDS011;55512;50.102;19.958;2023-03-01T10:02:00;22.80;;;9.60;;
68509;SDS011;55512;50.102;19.958;2023-03-01T10:04:48;20.00;;;9.40;;
68509;SDS011;55512;50.102;19.958;2023-03-01T10:10:45;22.40;;;11.30;;
68509;SDS011;55512;50.102;19.958;2023-03-01T10:13:37;21.80;;;11.70;;
68509;SDS011;55512;50.102;19.958;2023-03-01T10:16:21;22.90;;;11.60;;
68509;SDS011;55512;50.102;19.958;2023-03-01T10:18:57;20.60;;;11.20;;
68509;SDS011;55512;50.102;19.958;2023-03-01T10:21:27;22.00;;;11.30;;
68509;SDS011;55512;50.102;19.958;2023-03-01T10:24:04;19.40;;;9.70;;
68509;SDS011;55512;50.102;19.958;2023-03-01T10:29:34;23.40;;;13.00;;
68509;SDS011;55512;50.102;19.958;2023-03-01T10:32:05;22.30;;;10.70;;
68509;SDS011;55512;50.102;19.958;2023-03-01T10:34:34;21.90;;;11.40;;
68509;SDS011;55512;50.102;19.958;2023-03-01T10:37:16;24.40;;;10.90;;
68509;SDS011;55512;50.102;19.958;2023-03-01T10:42:35;21.00;;;11.10;;
68509;SDS011;55512;50.102;19.958;2023-03-01T10:48:23;25.10;;;11.40;;
68509;SDS011;55512;50.102;19.958;2023-03-01T10:56:08;20.00;;;11.40;;
68509;SDS011;55512;50.102;19.958;2023-03-01T10:58:38;25.10;;;10.70;;
68509;SDS011;55512;50.102;19.958;2023-03-01T11:01:24;23.00;;;11.70;;
68509;SDS011;55512;50.102;19.958;2023-03-01T11:04:18;25.10;;;12.70;;
68509;SDS011;55512;50.102;19.958;2023-03-01T11:06:43;23.80;;;12.60;;
68509;SDS011;55512;50.102;19.958;2023-03-01T11:09:24;22.40;;;12.70;;
68509;SDS011;55512;50.102;19.958;2023-03-01T11:11:57;24.60;;;12.30;;
68509;SDS011;55512;50.102;19.958;2023-03-01T11:14:30;28.60;;;13.10;;
68509;SDS011;55512;50.102;19.958;2023-03-01T11:22:45;31.50;;;15.60;;
68509;SDS011;55512;50.102;19.958;2023-03-01T11:25:15;28.50;;;14.20;;
68509;SDS011;55512;50.102;19.958;2023-03-01T11:27:44;26.80;;;13.50;;
68509;SDS011;55512;50.102;19.958;2023-03-01T11:30:31;26.30;;;14.40;;
68509;SDS011;55512;50.102;19.958;2023-03-01T11:35:41;32.20;;;16.00;;
68509;SDS011;55512;50.102;19.958;2023-03-01T11:38:18;34.60;;;15.90;;
68509;SDS011;55512;50.102;19.958;2023-03-01T11:43:51;31.30;;;15.50;;
68509;SDS011;55512;50.102;19.958;2023-03-01T11:46:28;31.50;;;15.10;;
68509;SDS011;55512;50.102;19.958;2023-03-01T11:52:30;29.40;;;14.50;;
68509;SDS011;55512;50.102;19.958;2023-03-01T12:01:17;27.50;;;14.40;;
68509;SDS011;55512;50.102;19.958;2023-03-01T12:07:19;29.10;;;13.10;;
68509;SDS011;55512;50.102;19.958;2023-03-01T12:18:55;25.40;;;12.70;;
68509;SDS011;55512;50.102;19.958;2023-03-01T12:36:49;22.30;;;13.00;;
68509;SDS011;55512;50.102;19.958;2023-03-01T12:42:35;25.50;;;13.10;;
68509;SDS011;55512;50.102;19.958;2023-03-01T12:51:09;23.90;;;12.40;;
68509;SDS011;55512;50.102;19.958;2023-03-01T12:53:46;19.80;;;11.50;;
68509;SDS011;55512;50.102;19.958;2023-03-01T12:56:17;22.80;;;11.70;;
68509;SDS011;55512;50.102;19.958;2023-03-01T13:02:04;22.40;;;12.10;;
68509;SDS011;55512;50.102;19.958;2023-03-01T13:07:55;24.10;;;12.90;;
68509;SDS011;55512;50.102;19.958;2023-03-01T13:10:47;26.10;;;12.40;;
68509;SDS011;55512;50.102;19.958;2023-03-01T13:13:33;22.70;;;10.60;;
68509;SDS011;55512;50.102;19.958;2023-03-01T13:16:39;24.00;;;11.50;;
68509;SDS011;55512;50.102;19.958;2023-03-01T13:19:19;22.10;;;10.50;;
68509;SDS011;55512;50.102;19.958;2023-03-01T13:21:47;26.40;;;12.80;;
68509;SDS011;55512;50.102;19.958;2023-03-01T13:29:52;24.20;;;14.00;;
68509;SDS011;55512;50.102;19.958;2023-03-01T13:32:28;20.80;;;10.60;;
68509;SDS011;55512;50.102;19.958;2023-03-01T13:37:51;24.80;;;11.30;;
68509;SDS011;55512;50.102;19.958;2023-03-01T13:42:47;24.70;;;12.90;;
68509;SDS011;55512;50.102;19.958;2023-03-01T13:45:24;23.50;;;13.00;;
68509;SDS011;55512;50.102;19.958;2023-03-01T13:48:25;23.10;;;12.70;;
68509;SDS011;55512;50.102;19.958;2023-03-01T13:50:55;25.20;;;12.30;;
68509;SDS011;55512;50.102;19.958;2023-03-01T13:53:29;20.60;;;12.50;;
68509;SDS011;55512;50.102;19.958;2023-03-01T13:56:13;21.20;;;12.30;;
68509;SDS011;55512;50.102;19.958;2023-03-01T14:01:35;20.00;;;10.80;;
68509;SDS011;55512;50.102;19.958;2023-03-01T14:04:03;20.40;;;10.50;;
68509;SDS011;55512;50.102;19.958;2023-03-01T14:06:45;19.30;;;10.30;;
68509;SDS011;55512;50.102;19.958;2023-03-01T14:09:21;19.60;;;8.60;;
68509;SDS011;55512;50.102;19.958;2023-03-01T14:12:05;18.40;;;8.40;;
68509;SDS011;55512;50.102;19.958;2023-03-01T14:20:28;20.50;;;8.80;;
68509;SDS011;55512;50.102;19.958;2023-03-01T14:22:59;15.20;;;8.30;;
68509;SDS011;55512;50.102;19.958;2023-03-01T14:25:29;19.10;;;11.60;;
68509;SDS011;55512;50.102;19.958;2023-03-01T14:30:45;15.50;;;11.50;;
68509;SDS011;55512;50.102;19.958;2023-03-01T14:33:31;19.80;;;12.00;;
68509;SDS011;55512;50.102;19.958;2023-03-01T14:36:09;18.90;;;12.00;;
68509;SDS011;55512;50.102;19.958;2023-03-01T14:38:42;18.70;;;12.40;;
68509;SDS011;55512;50.102;19.958;2023-03-01T14:41:15;17.30;;;13.30;;
68509;SDS011;55512;50.102;19.958;2023-03-01T14:43:45;16.60;;;12.10;;
68509;SDS011;55512;50.102;19.958;2023-03-01T14:46:36;18.10;;;11.70;;
68509;SDS011;55512;50.102;19.958;2023-03-01T14:49:16;16.80;;;11.00;;
68509;SDS011;55512;50.102;19.958;2023-03-01T14:52:17;14.80;;;10.80;;
68509;SDS011;55512;50.102;19.958;2023-03-01T14:54:50;20.50;;;13.60;;
68509;SDS011;55512;50.102;19.958;2023-03-01T14:57:23;15.10;;;11.30;;
68509;SDS011;55512;50.102;19.958;2023-03-01T14:59:52;14.70;;;13.00;;
68509;SDS011;55512;50.102;19.958;2023-03-01T15:02:24;18.00;;;12.30;;
68509;SDS011;55512;50.102;19.958;2023-03-01T15:04:55;16.00;;;11.60;;
68509;SDS011;55512;50.102;19.958;2023-03-01T15:07:26;19.90;;;12.00;;
68509;SDS011;55512;50.102;19.958;2023-03-01T15:09:55;20.50;;;12.30;;
68509;SDS011;55512;50.102;19.958;2023-03-01T15:12:34;17.00;;;12.90;;
68509;SDS011;55512;50.102;19.958;2023-03-01T15:15:01;15.90;;;11.80;;
68509;SDS011;55512;50.102;19.958;2023-03-01T15:17:44;17.50;;;12.50;;
68509;SDS011;55512;50.102;19.958;2023-03-01T15:20:18;16.20;;;12.40;;
68509;SDS011;55512;50.102;19.958;2023-03-01T15:22:47;17.30;;;13.20;;
68509;SDS011;55512;50.102;19.958;2023-03-01T15:25:18;17.70;;;12.40;;
68509;SDS011;55512;50.102;19.958;2023-03-01T15:27:46;17.20;;;12.60;;
68509;SDS011;55512;50.102;19.958;2023-03-01T15:30:17;17.40;;;12.40;;
68509;SDS011;55512;50.102;19.958;2023-03-01T15:32:46;18.60;;;12.90;;
68509;SDS011;55512;50.102;19.958;2023-03-01T15:38:30;16.80;;;12.10;;
68509;SDS011;55512;50.102;19.958;2023-03-01T15:40:59;21.50;;;12.80;;
68509;SDS011;55512;50.102;19.958;2023-03-01T15:43:46;23.90;;;13.30;;
68509;SDS011;55512;50.102;19.958;2023-03-01T15:46:21;18.20;;;11.80;;
68509;SDS011;55512;50.102;19.958;2023-03-01T15:48:52;19.80;;;13.20;;
68509;SDS011;55512;50.102;19.958;2023-03-01T15:51:41;22.10;;;12.90;;
68509;SDS011;55512;50.102;19.958;2023-03-01T15:54:17;26.80;;;13.00;;
68509;SDS011;55512;50.102;19.958;2023-03-01T15:56:45;24.90;;;12.80;;
68509;SDS011;55512;50.102;19.958;2023-03-01T15:59:11;22.40;;;12.40;;
68509;SDS011;55512;50.102;19.958;2023-03-01T16:01:39;26.20;;;12.00;;
68509;SDS011;55512;50.102;19.958;2023-03-01T16:04:06;19.60;;;11.40;;
68509;SDS011;55512;50.102;19.958;2023-03-01T16:06:31;27.70;;;11.40;;
68509;SDS011;55512;50.102;19.958;2023-03-01T16:08:57;23.30;;;10.50;;
68509;SDS011;55512;50.102;19.958;2023-03-01T16:11:22;19.60;;;10.20;;
68509;SDS011;55512;50.102;19.958;2023-03-01T16:13:48;21.40;;;9.90;;
68509;SDS011;55512;50.102;19.958;2023-03-01T16:16:15;21.60;;;9.50;;
68509;SDS011;55512;50.102;19.958;2023-03-01T16:18:46;19.10;;;9.20;;
68509;SDS011;55512;50.102;19.958;2023-03-01T16:21:30;28.10;;;10.00;;
68509;SDS011;55512;50.102;19.958;2023-03-01T16:23:55;26.00;;;10.40;;
68509;SDS011;55512;50.102;19.958;2023-03-01T16:26:21;23.80;;;9.70;;
68509;SDS011;55512;50.102;19.958;2023-03-01T16:28:47;21.50;;;9.30;;
68509;SDS011;55512;50.102;19.958;2023-03-01T16:31:17;23.50;;;10.20;;